createdAt,value
2022-08-19T00:02:01.546Z,999.90
2022-08-19T00:04:32.361Z,937.38
2022-08-19T00:07:00.471Z,999.90
2022-08-19T00:09:27.622Z,944.17
2022-08-19T00:11:59.454Z,999.90
2022-08-19T00:14:27.631Z,987.63
2022-08-19T00:16:55.469Z,934.97
2022-08-19T00:19:22.677Z,955.97
2022-08-19T00:21:49.197Z,965.85
2022-08-19T00:24:18.654Z,921.33
2022-08-19T00:26:46.408Z,996.45
2022-08-19T00:29:15.239Z,984.28
2022-08-19T00:31:42.808Z,882.22
2022-08-19T00:34:09.608Z,999.90
2022-08-19T00:36:36.172Z,997.17
2022-08-19T00:39:04.815Z,966.17
2022-08-19T00:41:31.231Z,915.08
2022-08-19T00:44:06.628Z,940.35
2022-08-19T00:46:34.457Z,999.90
2022-08-19T00:49:01.907Z,975.15
2022-08-19T00:51:30.447Z,927.42
2022-08-19T00:53:57.996Z,999.90
2022-08-19T00:56:24.760Z,945.92
2022-08-19T00:58:51.270Z,939.17
2022-08-19T01:01:17.712Z,950.35
2022-08-19T01:03:58.098Z,998.95
2022-08-19T01:06:25.502Z,994.80
2022-08-19T01:08:52.083Z,937.90
2022-08-19T01:11:18.553Z,968.08
2022-08-19T01:13:50.076Z,943.28
2022-08-19T01:16:19.244Z,958.20
2022-08-19T01:18:45.776Z,999.90
2022-08-19T01:21:16.273Z,947.15
2022-08-19T01:23:43.941Z,955.35
2022-08-19T01:26:14.449Z,945.65
2022-08-19T01:28:42.442Z,901.88
2022-08-19T01:31:12.452Z,974.10
2022-08-19T01:33:54.989Z,946.50
2022-08-19T01:36:27.914Z,940.22
2022-08-19T01:38:55.105Z,955.95
2022-08-19T01:41:24.097Z,930.67
2022-08-19T01:44:13.905Z,914.90
2022-08-19T01:46:38.199Z,984.75
2022-08-19T01:49:13.256Z,897.08
2022-08-19T01:51:40.565Z,915.65
2022-08-19T01:54:10.834Z,909.55
2022-08-19T01:56:37.627Z,935.28
2022-08-19T01:59:05.572Z,975.20
2022-08-19T02:01:35.774Z,883.97
2022-08-19T02:04:02.411Z,947.65
2022-08-19T02:06:28.931Z,916.70
2022-08-19T02:08:57.213Z,969.42
2022-08-19T02:11:27.463Z,900.00
2022-08-19T02:13:55.230Z,930.33
2022-08-19T02:16:21.874Z,930.70
2022-08-19T02:18:51.535Z,951.15
2022-08-19T02:21:19.559Z,950.28
2022-08-19T02:23:46.038Z,930.58
2022-08-19T02:26:13.393Z,936.05
2022-08-19T02:28:41.523Z,922.85
2022-08-19T02:31:12.570Z,920.83
2022-08-19T02:33:40.037Z,865.03
2022-08-19T02:36:07.395Z,923.22
2022-08-19T02:38:34.226Z,895.70
2022-08-19T02:41:02.303Z,933.53
2022-08-19T02:43:32.242Z,914.70
2022-08-19T02:46:01.335Z,898.73
2022-08-19T02:48:27.845Z,889.80
2022-08-19T02:50:56.653Z,886.90
2022-08-19T02:53:32.506Z,958.17
2022-08-19T02:55:58.998Z,932.50
2022-08-19T02:58:29.658Z,926.55
2022-08-19T03:00:57.457Z,944.50
2022-08-19T03:03:24.442Z,960.63
2022-08-19T03:05:56.482Z,960.75
2022-08-19T03:08:25.324Z,934.50
2022-08-19T03:10:53.044Z,931.25
2022-08-19T03:13:19.472Z,905.25
2022-08-19T03:15:47.403Z,901.22
2022-08-19T03:18:14.424Z,914.85
2022-08-19T03:20:44.608Z,936.85
2022-08-19T03:23:11.630Z,921.65
2022-08-19T03:25:44.021Z,910.35
2022-08-19T03:28:11.765Z,926.22
2022-08-19T03:30:38.242Z,982.60
2022-08-19T03:33:09.443Z,950.78
2022-08-19T03:35:39.114Z,937.00
2022-08-19T03:38:06.603Z,863.58
2022-08-19T03:40:35.903Z,961.17
2022-08-19T03:43:02.409Z,901.13
2022-08-19T03:45:29.902Z,939.08
2022-08-19T03:47:56.766Z,948.92
2022-08-19T03:50:23.189Z,923.05
2022-08-19T03:52:53.355Z,880.05
2022-08-19T03:55:20.016Z,925.35
2022-08-19T03:57:46.881Z,870.75
2022-08-19T04:00:14.213Z,882.00
2022-08-19T04:02:58.266Z,872.00
2022-08-19T04:05:29.443Z,946.58
2022-08-19T04:07:59.972Z,882.38
2022-08-19T04:10:26.938Z,843.70
2022-08-19T04:12:54.021Z,952.00
2022-08-19T04:15:21.280Z,867.45
2022-08-19T04:17:47.972Z,892.97
2022-08-19T04:20:14.438Z,869.25
2022-08-19T04:22:40.879Z,893.90
2022-08-19T04:25:07.425Z,921.05
2022-08-19T04:27:34.355Z,890.50
2022-08-19T04:30:00.788Z,873.42
2022-08-19T04:32:27.293Z,908.47
2022-08-19T04:35:01.393Z,947.35
2022-08-19T04:37:42.379Z,843.88
2022-08-19T04:40:35.198Z,893.45
2022-08-19T04:43:02.081Z,806.90
2022-08-19T04:45:28.535Z,843.10
2022-08-19T04:48:27.386Z,937.88
2022-08-19T04:51:00.094Z,853.20
2022-08-19T04:53:37.664Z,838.65
2022-08-19T04:56:13.069Z,876.58
2022-08-19T04:58:42.560Z,879.42
2022-08-19T05:01:12.018Z,911.55
2022-08-19T05:03:39.169Z,930.13
2022-08-19T05:06:12.934Z,860.97
2022-08-19T05:08:44.650Z,939.60
2022-08-19T05:11:27.368Z,865.08
2022-08-19T05:13:53.813Z,877.50
2022-08-19T05:16:21.540Z,857.45
2022-08-19T05:19:07.353Z,848.80
2022-08-19T05:21:52.756Z,835.47
2022-08-19T05:24:21.824Z,912.95
2022-08-19T05:26:49.278Z,891.95
2022-08-19T05:29:17.391Z,931.03
2022-08-19T05:31:44.494Z,856.30
2022-08-19T05:34:20.071Z,917.42
2022-08-19T05:36:47.190Z,883.38
2022-08-19T05:39:16.829Z,888.80
2022-08-19T05:41:44.301Z,930.30
2022-08-19T05:44:12.158Z,847.42
2022-08-19T05:46:39.098Z,916.85
2022-08-19T05:49:09.125Z,897.67
2022-08-19T05:51:36.816Z,966.13
2022-08-19T05:54:03.808Z,843.78
2022-08-19T05:56:31.678Z,999.90
2022-08-19T05:58:59.551Z,937.65
2022-08-19T06:01:26.379Z,942.33
2022-08-19T06:03:54.703Z,919.38
2022-08-19T06:06:21.501Z,886.75
2022-08-19T06:08:51.541Z,924.20
2022-08-19T06:11:22.214Z,955.50
2022-08-19T06:13:59.393Z,986.40
2022-08-19T06:16:26.868Z,843.88
2022-08-19T06:18:53.831Z,875.08
2022-08-19T06:21:26.593Z,999.90
2022-08-19T06:23:53.566Z,923.00
2022-08-19T06:26:20.659Z,911.22
2022-08-19T06:28:48.151Z,873.92
2022-08-19T06:31:18.830Z,953.67
2022-08-19T06:33:45.880Z,982.90
2022-08-19T06:36:19.739Z,927.78
2022-08-19T06:38:46.311Z,850.60
2022-08-19T06:41:14.323Z,873.15
2022-08-19T06:43:42.571Z,978.17
2022-08-19T06:46:12.507Z,849.58
2022-08-19T06:48:45.816Z,968.88
2022-08-19T06:51:12.866Z,944.30
2022-08-19T06:53:40.543Z,869.47
2022-08-19T06:56:07.099Z,957.03
2022-08-19T06:58:33.530Z,889.63
2022-08-19T07:01:04.443Z,925.97
2022-08-19T07:03:34.485Z,892.22
2022-08-19T07:06:07.201Z,935.88
2022-08-19T07:11:10.862Z,902.70
2022-08-19T07:13:38.326Z,957.22
2022-08-19T07:16:06.198Z,947.22
2022-08-19T07:18:34.031Z,895.08
2022-08-19T07:21:13.511Z,964.58
2022-08-19T07:23:40.485Z,879.88
2022-08-19T07:26:09.454Z,896.13
2022-08-19T07:28:40.053Z,882.55
2022-08-19T07:31:23.071Z,914.13
2022-08-19T07:33:53.314Z,945.47
2022-08-19T07:36:22.541Z,912.92
2022-08-19T07:38:52.383Z,897.33
2022-08-19T07:41:22.861Z,900.80
2022-08-19T07:43:50.197Z,983.65
2022-08-19T07:46:24.438Z,955.08
2022-08-19T07:48:51.251Z,880.42
2022-08-19T07:51:35.905Z,898.05
2022-08-19T07:54:04.057Z,909.40
2022-08-19T07:56:30.495Z,957.25
2022-08-19T08:01:28.853Z,975.22
2022-08-19T08:04:16.854Z,921.78
2022-08-19T08:07:02.163Z,901.97
2022-08-19T08:09:39.288Z,918.80
2022-08-19T08:12:32.947Z,872.03
2022-08-19T08:14:58.998Z,938.92
2022-08-19T08:17:31.159Z,965.05
2022-08-19T08:20:13.937Z,877.20
2022-08-19T08:23:02.993Z,995.88
2022-08-19T08:25:38.819Z,982.80
2022-08-19T08:28:05.758Z,962.13
2022-08-19T08:30:34.202Z,954.28
2022-08-19T08:33:00.877Z,977.60
2022-08-19T08:35:29.312Z,958.85
2022-08-19T08:37:57.699Z,972.65
2022-08-19T08:40:42.759Z,957.10
2022-08-19T08:43:12.417Z,973.22
2022-08-19T08:45:53.597Z,942.60
2022-08-19T08:48:36.804Z,936.55
2022-08-19T08:51:07.529Z,951.88
2022-08-19T08:53:40.495Z,928.35
2022-08-19T08:56:13.987Z,951.60
2022-08-19T08:58:57.559Z,864.20
2022-08-19T09:01:30.260Z,878.35
2022-08-19T09:03:57.676Z,994.95
2022-08-19T09:06:40.881Z,989.67
2022-08-19T09:09:24.605Z,976.55
2022-08-19T09:12:14.791Z,900.10
2022-08-19T09:14:51.557Z,941.00
2022-08-19T09:17:19.856Z,926.33
2022-08-19T09:19:54.815Z,973.70
2022-08-19T09:22:26.073Z,992.38
2022-08-19T09:24:54.233Z,954.78
2022-08-19T09:27:21.871Z,909.60
2022-08-19T09:30:09.944Z,926.38
2022-08-19T09:32:36.423Z,981.55
2022-08-19T09:35:03.561Z,952.38
2022-08-19T09:37:35.715Z,908.85
2022-08-19T09:40:05.455Z,896.83
2022-08-19T09:42:35.360Z,963.00
2022-08-19T09:45:02.236Z,877.72
2022-08-19T09:47:31.667Z,943.03
2022-08-19T09:49:59.025Z,868.55
2022-08-19T09:52:25.807Z,924.42
2022-08-19T09:54:59.513Z,999.90
2022-08-19T09:57:26.035Z,980.72
2022-08-19T09:59:52.523Z,941.22
2022-08-19T10:02:23.645Z,941.05
2022-08-19T10:05:14.336Z,996.30
2022-08-19T10:07:56.767Z,961.83
2022-08-19T10:10:23.394Z,971.55
2022-08-19T10:12:53.025Z,958.05
2022-08-19T10:15:28.848Z,973.75
2022-08-19T10:17:59.847Z,999.50
2022-08-19T10:20:27.331Z,994.95
2022-08-19T10:22:53.782Z,988.00
2022-08-19T10:25:20.209Z,956.38
2022-08-19T10:27:48.397Z,970.28
2022-08-19T10:30:18.147Z,999.90
2022-08-19T10:32:46.934Z,983.28
2022-08-19T10:35:14.030Z,934.35
2022-08-19T10:37:57.270Z,969.72
2022-08-19T10:40:24.683Z,933.10
2022-08-19T10:42:55.097Z,944.90
2022-08-19T10:45:28.148Z,972.05
2022-08-19T10:47:55.005Z,993.10
2022-08-19T10:50:41.362Z,992.97
2022-08-19T10:53:12.944Z,979.75
2022-08-19T10:55:58.106Z,924.97
2022-08-19T10:58:26.322Z,943.58
2022-08-19T11:00:54.336Z,942.25
2022-08-19T11:03:21.228Z,965.95
2022-08-19T11:05:49.903Z,987.95
2022-08-19T11:08:22.664Z,937.58
2022-08-19T11:10:51.001Z,929.10
2022-08-19T11:13:17.586Z,947.92
2022-08-19T11:15:44.139Z,895.08
2022-08-19T11:18:13.528Z,991.97
2022-08-19T11:20:47.319Z,960.92
2022-08-19T11:23:13.817Z,938.55
2022-08-19T11:25:40.341Z,946.55
2022-08-19T11:28:06.770Z,967.85
2022-08-19T11:30:34.215Z,940.08
2022-08-19T11:33:01.948Z,913.97
2022-08-19T11:35:29.176Z,913.05
2022-08-19T11:37:57.025Z,849.28
2022-08-19T11:40:23.629Z,904.85
2022-08-19T11:42:56.779Z,869.45
2022-08-19T11:45:24.219Z,978.83
2022-08-19T11:47:53.540Z,990.05
2022-08-19T11:50:20.214Z,881.65
2022-08-19T11:52:46.830Z,982.53
2022-08-19T11:55:14.136Z,969.95
2022-08-19T11:57:42.173Z,896.55
2022-08-19T12:00:10.528Z,926.65
2022-08-19T12:02:37.400Z,888.42
2022-08-19T12:05:06.943Z,958.50
2022-08-19T12:07:36.020Z,961.00
2022-08-19T12:10:02.971Z,933.85
2022-08-19T12:12:30.339Z,923.38
2022-08-19T12:15:02.909Z,920.67
2022-08-19T12:17:29.689Z,908.05
2022-08-19T12:19:56.124Z,884.22
2022-08-19T12:22:22.801Z,875.25
2022-08-19T12:24:53.226Z,996.55
2022-08-19T12:27:31.881Z,957.47
2022-08-19T12:30:07.126Z,912.15
2022-08-19T12:32:34.887Z,911.88
2022-08-19T12:35:02.151Z,870.03
2022-08-19T12:37:28.923Z,927.20
2022-08-19T12:39:55.497Z,947.15
2022-08-19T12:42:22.993Z,905.70
2022-08-19T12:44:49.635Z,893.03
2022-08-19T12:47:16.077Z,887.90
2022-08-19T12:49:53.921Z,935.72
2022-08-19T12:52:26.788Z,838.72
2022-08-19T12:54:56.218Z,910.50
2022-08-19T12:57:31.719Z,876.90
2022-08-19T13:00:00.412Z,819.75
2022-08-19T13:02:27.461Z,806.72
2022-08-19T13:04:53.946Z,801.47
2022-08-19T13:07:20.641Z,813.78
2022-08-19T13:09:51.964Z,818.20
2022-08-19T13:12:24.919Z,797.03
2022-08-19T13:14:53.542Z,814.05
2022-08-19T13:17:20.364Z,773.35
2022-08-19T13:19:46.918Z,797.95
2022-08-19T13:22:15.202Z,745.60
2022-08-19T13:24:46.817Z,741.08
2022-08-19T13:27:13.708Z,762.35
2022-08-19T13:29:59.308Z,726.47
2022-08-19T13:32:44.370Z,829.80
2022-08-19T13:35:16.873Z,826.03
2022-08-19T13:40:17.061Z,810.25
2022-08-19T13:42:48.106Z,709.42
2022-08-19T13:45:16.177Z,801.95
2022-08-19T13:47:51.038Z,754.13
2022-08-19T13:50:23.702Z,789.53
2022-08-19T13:52:50.290Z,728.15
2022-08-19T13:55:24.769Z,816.45
2022-08-19T13:57:56.058Z,812.55
2022-08-19T14:00:25.646Z,769.15
2022-08-19T14:02:52.908Z,793.53
2022-08-19T14:05:19.915Z,837.38
2022-08-19T14:07:48.268Z,831.88
2022-08-19T14:10:15.766Z,729.97
2022-08-19T14:12:42.482Z,808.05
2022-08-19T14:15:09.729Z,759.95
2022-08-19T14:17:47.823Z,703.83
2022-08-19T14:20:17.137Z,748.50
2022-08-19T14:22:45.986Z,707.45
2022-08-19T14:25:15.264Z,686.40
2022-08-19T14:27:42.264Z,615.78
2022-08-19T14:30:10.369Z,801.95
2022-08-19T14:32:37.052Z,662.95
2022-08-19T14:35:04.234Z,705.05
2022-08-19T14:37:31.032Z,684.63
2022-08-19T14:39:57.894Z,651.85
2022-08-19T14:42:27.479Z,694.78
2022-08-19T14:44:53.882Z,655.85
2022-08-19T14:47:20.334Z,685.13
2022-08-19T14:49:49.499Z,631.03
2022-08-19T14:52:17.018Z,689.03
2022-08-19T14:54:43.798Z,722.03
2022-08-19T14:57:12.560Z,631.63
2022-08-19T14:59:39.776Z,649.95
2022-08-19T15:02:33.454Z,577.10
2022-08-19T15:04:58.319Z,650.58
2022-08-19T15:07:28.977Z,598.42
2022-08-19T15:09:57.156Z,595.80
2022-08-19T15:12:23.746Z,624.55
2022-08-19T15:14:56.002Z,632.40
2022-08-19T15:17:45.018Z,695.55
2022-08-19T15:20:11.048Z,592.97
2022-08-19T15:22:37.490Z,634.22
2022-08-19T15:25:06.562Z,578.83
2022-08-19T15:27:33.022Z,596.65
2022-08-19T15:30:01.369Z,650.00
2022-08-19T15:32:29.023Z,630.42
2022-08-19T15:34:57.055Z,621.00
2022-08-19T15:37:24.089Z,634.35
2022-08-19T15:39:51.089Z,652.20
2022-08-19T15:42:18.392Z,664.30
2022-08-19T15:44:56.869Z,707.33
2022-08-19T15:47:28.956Z,682.17
2022-08-19T15:50:01.679Z,740.58
2022-08-19T15:52:28.074Z,672.63
2022-08-19T15:54:54.554Z,737.47
2022-08-19T15:57:23.716Z,657.10
2022-08-19T16:00:08.791Z,799.30
2022-08-19T16:02:56.629Z,738.03
2022-08-19T16:05:43.269Z,810.50
2022-08-19T16:08:10.021Z,843.65
2022-08-19T16:10:40.300Z,731.13
2022-08-19T16:13:06.989Z,758.88
2022-08-19T16:15:34.284Z,812.97
2022-08-19T16:18:04.706Z,868.60
2022-08-19T16:20:31.649Z,721.45
2022-08-19T16:22:59.782Z,769.00
2022-08-19T16:25:27.769Z,900.20
2022-08-19T16:28:07.052Z,929.75
2022-08-19T16:30:34.686Z,757.10
2022-08-19T16:33:01.142Z,884.75
2022-08-19T16:35:27.822Z,843.17
2022-08-19T16:37:54.442Z,759.60
2022-08-19T16:40:21.078Z,815.42
2022-08-19T16:42:47.582Z,914.30
2022-08-19T16:45:13.991Z,894.63
2022-08-19T16:47:41.206Z,997.85
2022-08-19T16:50:07.940Z,788.90
2022-08-19T16:52:34.902Z,891.28
2022-08-19T16:55:01.362Z,826.85
2022-08-19T16:57:27.869Z,846.60
2022-08-19T16:59:56.026Z,791.08
2022-08-19T17:02:23.493Z,814.65
2022-08-19T17:04:57.547Z,794.85
2022-08-19T17:07:27.050Z,771.55
2022-08-19T17:09:53.464Z,816.85
2022-08-19T17:12:21.757Z,941.38
2022-08-19T17:14:48.185Z,875.17
2022-08-19T17:17:14.784Z,828.75
2022-08-19T17:19:43.425Z,988.67
2022-08-19T17:22:11.313Z,891.88
2022-08-19T17:24:38.157Z,848.47
2022-08-19T17:27:07.690Z,989.65
2022-08-19T17:29:34.287Z,897.42
2022-08-19T17:32:01.869Z,944.22
2022-08-19T17:34:28.307Z,913.40
2022-08-19T17:36:57.105Z,977.50
2022-08-19T17:39:25.313Z,989.38
2022-08-19T17:41:51.739Z,990.08
2022-08-19T17:44:18.918Z,956.03
2022-08-19T17:46:46.655Z,982.20
2022-08-19T17:49:13.399Z,917.90
2022-08-19T17:51:42.398Z,812.58
2022-08-19T17:54:18.613Z,921.53
2022-08-19T17:56:46.219Z,964.05
2022-08-19T17:59:13.796Z,912.05
2022-08-19T18:01:53.358Z,880.10
2022-08-19T18:04:21.218Z,894.47
2022-08-19T18:06:53.657Z,918.03
2022-08-19T18:09:23.938Z,901.88
2022-08-19T18:11:52.687Z,943.05
2022-08-19T18:14:19.982Z,935.15
2022-08-19T18:16:46.807Z,931.95
2022-08-19T18:19:16.184Z,943.70
2022-08-19T18:21:42.618Z,917.33
2022-08-19T18:24:09.041Z,955.55
2022-08-19T18:26:35.519Z,980.65
2022-08-19T18:29:03.266Z,973.28
2022-08-19T18:31:30.041Z,966.92
2022-08-19T18:33:57.018Z,947.58
2022-08-19T18:36:52.002Z,997.53
2022-08-19T18:39:29.580Z,951.78
2022-08-19T18:42:16.904Z,973.88
2022-08-19T18:45:01.731Z,999.90
2022-08-19T18:47:47.066Z,992.28
2022-08-19T18:50:13.898Z,916.45
2022-08-19T18:52:40.696Z,960.00
2022-08-19T18:55:07.837Z,964.50
2022-08-19T18:57:34.279Z,999.08
2022-08-19T19:00:02.534Z,965.80
2022-08-19T19:02:29.212Z,999.90
2022-08-19T19:04:56.165Z,989.38
2022-08-19T19:07:23.372Z,867.83
2022-08-19T19:09:52.644Z,932.38
2022-08-19T19:12:19.153Z,934.33
2022-08-19T19:14:49.425Z,909.55
2022-08-19T19:17:16.588Z,919.25
2022-08-19T19:19:44.032Z,948.22
2022-08-19T19:22:17.051Z,958.53
2022-08-19T19:27:13.960Z,883.97
2022-08-19T19:29:40.962Z,971.78
2022-08-19T19:32:08.834Z,956.08
2022-08-19T19:34:37.424Z,972.85
2022-08-19T19:37:05.772Z,963.05
2022-08-19T19:39:46.184Z,980.90
2022-08-19T19:42:20.434Z,929.03
2022-08-19T19:44:48.826Z,964.75
2022-08-19T19:47:18.777Z,930.55
2022-08-19T19:50:10.550Z,999.90
2022-08-19T19:52:32.770Z,992.80
2022-08-19T19:54:59.192Z,928.67
2022-08-19T19:57:26.957Z,999.90
2022-08-19T19:59:54.340Z,938.25
2022-08-19T20:02:22.086Z,926.63
2022-08-19T20:04:49.713Z,965.72
2022-08-19T20:07:16.245Z,987.00
2022-08-19T20:09:59.193Z,989.90
2022-08-19T20:14:52.478Z,837.40
2022-08-19T20:17:20.547Z,985.47
2022-08-19T20:19:47.756Z,977.78
2022-08-19T20:22:14.460Z,981.75
2022-08-19T20:24:42.627Z,927.78
2022-08-19T20:27:09.566Z,983.03
2022-08-19T20:29:38.749Z,949.83
2022-08-19T20:32:07.065Z,935.25
2022-08-19T20:34:33.868Z,946.88
2022-08-19T20:37:00.371Z,999.90
2022-08-19T20:39:26.976Z,979.17
2022-08-19T20:41:53.452Z,946.85
2022-08-19T20:44:19.899Z,932.28
2022-08-19T20:46:55.323Z,945.45
2022-08-19T20:49:27.112Z,956.13
2022-08-19T20:51:54.560Z,993.15
2022-08-19T20:54:21.155Z,959.67
2022-08-19T20:56:47.601Z,985.65
2022-08-19T20:59:14.042Z,920.30
2022-08-19T21:01:40.677Z,966.10
2022-08-19T21:04:09.920Z,975.17
2022-08-19T21:06:37.030Z,997.58
2022-08-19T21:09:04.524Z,957.95
2022-08-19T21:11:32.397Z,919.95
2022-08-19T21:13:59.171Z,947.83
2022-08-19T21:16:28.293Z,963.85
2022-08-19T21:18:54.769Z,952.42
2022-08-19T21:21:21.217Z,909.60
2022-08-19T21:23:49.590Z,999.90
2022-08-19T21:26:16.280Z,988.22
2022-08-19T21:28:42.861Z,999.90
2022-08-19T21:31:10.543Z,987.65
2022-08-19T21:33:37.164Z,979.47
2022-08-19T21:36:04.057Z,903.35
2022-08-19T21:38:32.873Z,876.83
2022-08-19T21:40:59.346Z,933.85
2022-08-19T21:43:32.601Z,958.72
2022-08-19T21:45:59.081Z,999.90
2022-08-19T21:48:25.488Z,927.85
2022-08-19T21:50:52.411Z,938.33
2022-08-19T21:53:19.144Z,924.22
2022-08-19T21:55:53.187Z,917.47
2022-08-19T21:58:28.272Z,931.10
2022-08-19T22:00:57.752Z,876.00
2022-08-19T22:03:26.393Z,971.97
2022-08-19T22:05:53.358Z,953.05
2022-08-19T22:08:20.063Z,961.28
2022-08-19T22:10:46.802Z,942.70
2022-08-19T22:13:13.685Z,943.30
2022-08-19T22:15:41.114Z,941.08
2022-08-19T22:18:07.611Z,994.55
2022-08-19T22:20:34.335Z,997.83
2022-08-19T22:23:02.236Z,960.05
2022-08-19T22:25:32.746Z,955.17
2022-08-19T22:28:02.057Z,893.97
2022-08-19T22:30:33.558Z,934.45
2022-08-19T22:33:02.143Z,941.42
2022-08-19T22:35:31.946Z,875.10
2022-08-19T22:37:58.985Z,901.47
2022-08-19T22:40:26.531Z,920.80
2022-08-19T22:43:00.177Z,904.50
2022-08-19T22:45:27.218Z,902.67
2022-08-19T22:47:53.844Z,853.83
2022-08-19T22:50:20.626Z,945.65
2022-08-19T22:52:51.672Z,939.72
2022-08-19T22:55:18.963Z,845.95
2022-08-19T22:57:45.550Z,965.38
2022-08-19T23:00:13.464Z,920.50
2022-08-19T23:02:51.792Z,941.92
2022-08-19T23:05:21.843Z,867.42
2022-08-19T23:07:52.707Z,957.28
2022-08-19T23:10:26.538Z,994.53
2022-08-19T23:12:55.504Z,931.88
2022-08-19T23:15:25.919Z,829.85
2022-08-19T23:17:54.055Z,999.90
2022-08-19T23:20:21.122Z,822.88
2022-08-19T23:22:50.354Z,758.10
2022-08-19T23:25:21.397Z,925.88
2022-08-19T23:28:07.018Z,833.78
2022-08-19T23:30:34.730Z,784.13
2022-08-19T23:33:07.667Z,816.80
2022-08-19T23:35:37.099Z,956.33
2022-08-19T23:38:04.240Z,763.85
2022-08-19T23:40:30.739Z,897.00
2022-08-19T23:42:58.315Z,882.60
2022-08-19T23:45:25.599Z,797.95
2022-08-19T23:47:53.300Z,871.10
2022-08-19T23:50:20.254Z,936.88
2022-08-19T23:52:48.009Z,764.50
2022-08-19T23:55:15.084Z,897.58
2022-08-19T23:57:41.596Z,697.00
